Time;durP1;ratioP1;P1;durP2;ratioP2;P2;SDS_P1;SDS_P2;PMS_P1;PMS_P2;Temp;Humidity;BMP_temperature;BMP_pressure;BME280_temperature;BME280_humidity;BME280_pressure;Samples;Min_cycle;Max_cycle;Signal;HPM_P1;HPM_P2
2021/12/30 00:00:56;;;;;;;35.67;8.07;;;;;;;10.16;100.00;100885.78;2097792;28;20286;-65
2021/12/30 00:01:57;;;;;;;42.80;7.95;;;;;;;10.14;100.00;100886.75;2106678;28;20032;-64
2021/12/30 00:02:57;;;;;;;40.37;8.27;;;;;;;10.12;100.00;100893.75;2097676;28;20175;-64
2021/12/30 00:03:57;;;;;;;37.27;9.57;;;;;;;10.12;100.00;100896.38;2097693;28;20767;-64
2021/12/30 00:04:58;;;;;;;33.73;9.10;;;;;;;10.11;100.00;100892.94;2106668;28;20028;-64
2021/12/30 00:05:59;;;;;;;36.45;7.45;;;;;;;10.10;100.00;100896.47;2106780;28;20028;-64
2021/12/30 00:06:59;;;;;;;35.97;7.87;;;;;;;10.12;100.00;100894.63;2097647;28;20021;-63
2021/12/30 00:07:59;;;;;;;30.40;7.80;;;;;;;10.19;100.00;100895.22;2097757;28;20483;-64
2021/12/30 00:08:59;;;;;;;31.30;8.33;;;;;;;10.17;100.00;100902.28;2106635;28;20016;-64
2021/12/30 00:10:00;;;;;;;37.53;9.37;;;;;;;10.14;100.00;100899.78;2106703;28;20153;-64
2021/12/30 00:11:00;;;;;;;35.92;8.07;;;;;;;10.18;100.00;100898.75;2106745;28;20389;-65
2021/12/30 00:12:01;;;;;;;35.43;8.43;;;;;;;10.22;100.00;100897.72;2106644;28;20063;-63
2021/12/30 00:13:02;;;;;;;40.83;9.30;;;;;;;10.25;100.00;100889.78;2106679;28;20127;-63
2021/12/30 00:14:02;;;;;;;;;;;;;;;10.26;100.00;100896.69;2098179;28;20024;-64
2021/12/30 00:15:06;;;;;;;37.45;7.95;;;;;;;10.28;100.00;100892.28;2097885;28;19908;-64
2021/12/30 00:16:06;;;;;;;32.78;7.88;;;;;;;10.30;100.00;100892.22;2106571;28;20035;-64
2021/12/30 00:17:07;;;;;;;37.03;8.50;;;;;;;10.29;100.00;100901.78;2106684;28;20507;-64
2021/12/30 00:18:09;;;;;;;33.90;7.90;;;;;;;10.30;100.00;100897.44;2105975;28;20088;-64
2021/12/30 00:19:09;;;;;;;38.03;8.65;;;;;;;10.28;100.00;100889.66;2106014;28;20039;-64
2021/12/30 00:20:10;;;;;;;29.43;8.80;;;;;;;10.31;100.00;100894.72;2106621;28;20062;-65
2021/12/30 00:21:11;;;;;;;37.28;9.55;;;;;;;10.33;100.00;100901.66;2106727;28;20020;-64
2021/12/30 00:22:12;;;;;;;31.85;7.88;;;;;;;10.34;100.00;100900.75;2106585;28;20385;-63
2021/12/30 00:23:12;;;;;;;35.15;7.70;;;;;;;10.34;100.00;100896.38;2106635;28;20445;-62
2021/12/30 00:24:12;;;;;;;41.20;8.47;;;;;;;10.34;100.00;100892.91;2106668;28;20142;-64
2021/12/30 00:25:15;;;;;;;49.63;10.47;;;;;;;10.28;100.00;100894.88;2106811;28;20365;-64
2021/12/30 00:26:15;;;;;;;40.85;9.20;;;;;;;10.29;100.00;100895.72;2106584;28;20060;-64
2021/12/30 00:27:16;;;;;;;35.10;8.00;;;;;;;10.29;100.00;100896.56;2105630;28;20062;-64
2021/12/30 00:28:22;;;;;;;31.30;7.93;;;;;;;10.34;100.00;100903.34;2098155;28;20036;-64
2021/12/30 00:29:24;;;;;;;26.42;7.95;;;;;;;10.38;100.00;100899.72;2089179;28;20033;-64
2021/12/30 00:30:24;;;;;;;32.47;8.10;;;;;;;10.39;100.00;100898.78;2089491;28;20017;-64
2021/12/30 00:31:25;;;;;;;;;;;;;;;10.42;100.00;100901.28;2098681;28;20052;-64
2021/12/30 00:32:26;;;;;;;30.58;7.45;;;;;;;10.41;100.00;100900.41;2098188;28;20357;-64
2021/12/30 00:33:27;;;;;;;32.20;8.83;;;;;;;10.43;100.00;100893.38;2089268;28;20474;-65
2021/12/30 00:34:27;;;;;;;42.60;9.18;;;;;;;10.40;100.00;100897.91;2089335;28;20021;-65
2021/12/30 00:35:28;;;;;;;41.47;8.80;;;;;;;10.38;100.00;100904.94;2098198;28;20082;-65
2021/12/30 00:36:29;;;;;;;33.75;7.32;;;;;;;10.35;100.00;100905.03;2098266;28;20089;-63
2021/12/30 00:37:29;;;;;;;35.77;9.10;;;;;;;10.38;100.00;100904.94;2098106;28;20056;-65
2021/12/30 00:38:30;;;;;;;31.27;7.35;;;;;;;10.42;100.00;100902.13;2089179;28;20440;-64
2021/12/30 00:39:30;;;;;;;39.00;8.07;;;;;;;10.46;100.00;100907.25;2089287;28;20072;-64
2021/12/30 00:40:31;;;;;;;38.93;7.37;;;;;;;10.46;100.00;100907.25;2098098;28;20091;-64
2021/12/30 00:41:31;;;;;;;33.67;7.80;;;;;;;10.44;100.00;100912.50;2098266;28;20504;-65
2021/12/30 00:42:31;;;;;;;33.43;7.33;;;;;;;10.44;100.00;100909.91;2098221;28;20068;-64
2021/12/30 00:43:32;;;;;;;43.47;8.40;;;;;;;10.42;100.00;100916.94;2098179;28;20064;-63
2021/12/30 00:44:32;;;;;;;34.93;6.83;;;;;;;10.46;100.00;100912.47;2089245;28;20122;-64
2021/12/30 00:45:35;;;;;;;37.33;7.83;;;;;;;10.48;100.00;100911.50;2089368;28;20109;-65
2021/12/30 00:46:35;;;;;;;39.45;8.65;;;;;;;10.49;100.00;100917.56;2097407;28;20029;-64
2021/12/30 00:47:35;;;;;;;34.83;8.33;;;;;;;10.52;100.00;100926.13;2097582;28;20063;-63
2021/12/30 00:48:37;;;;;;;38.33;8.07;;;;;;;10.53;100.00;100917.38;2089243;28;20112;-64
2021/12/30 00:49:37;;;;;;;40.42;7.28;;;;;;;10.53;100.00;100924.34;2089353;28;20363;-64
2021/12/30 00:50:39;;;;;;;37.47;8.33;;;;;;;10.53;100.00;100921.75;2098161;28;20131;-64
2021/12/30 00:51:40;;;;;;;27.08;7.65;;;;;;;10.52;100.00;100912.22;2098084;28;20031;-65
2021/12/30 00:52:40;;;;;;;43.28;8.20;;;;;;;10.52;100.00;100923.50;2098139;28;20017;-64
2021/12/30 00:53:41;;;;;;;41.47;8.53;;;;;;;10.55;100.00;100923.38;2098162;28;20021;-63
2021/12/30 00:54:41;;;;;;;31.55;8.60;;;;;;;10.56;100.00;100925.09;2098162;28;20647;-64
2021/12/30 00:55:43;;;;;;;35.37;7.17;;;;;;;10.59;100.00;100926.72;2098229;28;20108;-64
2021/12/30 00:56:43;;;;;;;32.13;7.82;;;;;;;10.61;100.00;100924.03;2098252;28;20476;-64
2021/12/30 00:57:43;;;;;;;33.20;6.67;;;;;;;10.62;100.00;100928.34;2099987;28;20008;-65
2021/12/30 00:58:44;;;;;;;39.53;8.40;;;;;;;10.64;100.00;100931.75;2099931;28;20447;-64
2021/12/30 00:59:44;;;;;;;31.43;8.13;;;;;;;10.63;100.00;100924.81;2099921;28;20023;-64
2021/12/30 01:00:47;;;;;;;34.43;7.73;;;;;;;10.63;100.00;100930.91;2099823;28;20008;-64
2021/12/30 01:01:47;;;;;;;40.05;7.68;;;;;;;10.65;100.00;100930.84;2090725;28;20353;-65
2021/12/30 01:02:48;;;;;;;40.83;7.32;;;;;;;10.65;100.00;100930.84;2090839;28;20083;-64
2021/12/30 01:03:48;;;;;;;28.48;6.35;;;;;;;10.66;100.00;100932.53;2098937;28;20016;-67
2021/12/30 01:04:49;;;;;;;36.23;7.13;;;;;;;10.67;100.00;100929.00;2099146;28;20134;-65
2021/12/30 01:05:49;;;;;;;34.77;6.50;;;;;;;10.67;100.00;100926.38;2099165;28;20067;-65
2021/12/30 01:06:51;;;;;;;36.40;7.33;;;;;;;10.69;100.00;100929.78;2099783;28;20288;-63
2021/12/30 01:07:52;;;;;;;29.20;7.47;;;;;;;10.71;100.00;100927.13;2099698;28;20027;-64
2021/12/30 01:08:52;;;;;;;25.23;6.23;;;;;;;10.69;100.00;100928.03;2099627;28;20040;-64
2021/12/30 01:09:52;;;;;;;33.60;7.60;;;;;;;10.68;100.00;100930.72;2099706;28;20016;-65
2021/12/30 01:10:53;;;;;;;39.07;6.60;;;;;;;10.69;100.00;100921.97;2099789;28;20113;-64
2021/12/30 01:11:55;;;;;;;29.73;6.97;;;;;;;10.70;100.00;100923.66;2099718;28;20043;-65
2021/12/30 01:12:56;;;;;;;30.48;7.90;;;;;;;10.71;100.00;100925.34;2099741;28;20020;-64
2021/12/30 01:14:02;;;;;;;39.67;8.43;;;;;;;10.72;100.00;100924.44;2099727;28;20489;-65
2021/12/30 01:15:10;;;;;;;35.33;6.78;;;;;;;10.71;100.00;100924.50;2099692;28;20481;-65
2021/12/30 01:16:18;;;;;;;37.03;7.60;;;;;;;10.72;100.00;100924.44;2099640;28;20024;-63
2021/12/30 01:17:25;;;;;;;35.50;7.20;;;;;;;10.75;100.00;100931.31;2099596;28;20028;-64
2021/12/30 01:18:41;;;;;;;27.30;5.85;;;;;;;10.73;100.00;100926.13;2099616;28;20032;-64
2021/12/30 01:19:42;;;;;;;26.67;6.20;;;;;;;10.73;100.00;100930.50;2099675;28;20035;-64
2021/12/30 01:20:43;;;;;;;35.47;7.40;;;;;;;10.76;100.00;100933.84;2099782;28;20074;-65
2021/12/30 01:21:43;;;;;;;37.70;7.47;;;;;;;10.79;100.00;100931.13;2099509;28;20484;-64
2021/12/30 01:22:47;;;;;;;46.92;7.28;;;;;;;10.81;100.00;100933.63;2099575;28;20282;-64
2021/12/30 01:23:47;;;;;;;32.08;7.60;;;;;;;10.82;100.00;100930.97;2099430;28;20035;-64
2021/12/30 01:24:48;;;;;;;35.47;7.70;;;;;;;10.82;100.00;100936.19;2090709;28;20087;-65
2021/12/30 01:25:48;;;;;;;25.17;6.57;;;;;;;10.85;100.00;100944.81;2082302;28;20044;-64
2021/12/30 01:26:49;;;;;;;35.42;7.40;;;;;;;10.90;100.00;100937.63;2090906;28;20532;-63
2021/12/30 01:27:49;;;;;;;33.90;6.67;;;;;;;10.91;100.00;100927.13;2099368;28;20055;-65
2021/12/30 01:28:49;;;;;;;31.20;7.70;;;;;;;10.91;100.00;100932.34;2099540;28;20129;-64
2021/12/30 01:29:50;;;;;;;31.50;7.73;;;;;;;10.95;100.00;100940.91;2090650;28;20017;-64
2021/12/30 01:30:51;;;;;;;35.80;8.07;;;;;;;10.95;100.00;100940.91;2090731;28;20286;-64
2021/12/30 01:31:51;;;;;;;34.47;6.20;;;;;;;10.97;100.00;100941.69;2099527;28;20024;-64
2021/12/30 01:32:51;;;;;;;34.70;7.50;;;;;;;10.98;100.00;100937.31;2090732;28;20024;-63
2021/12/30 01:33:51;;;;;;;31.57;6.93;;;;;;;10.99;100.00;100936.41;2090681;28;20408;-64
2021/12/30 01:34:52;;;;;;;31.57;6.73;;;;;;;10.98;100.00;100940.75;2082373;28;20053;-65
2021/12/30 01:35:52;;;;;;;40.83;6.45;;;;;;;10.99;100.00;100941.63;2090658;28;20031;-65
2021/12/30 01:36:55;;;;;;;28.50;6.27;;;;;;;10.99;100.00;100941.63;2090607;28;20017;-65
2021/12/30 01:37:58;;;;;;;24.85;6.82;;;;;;;11.02;100.00;100941.50;2090824;28;20024;-65
2021/12/30 01:38:59;;;;;;;26.67;6.47;;;;;;;11.03;100.00;100944.03;2099568;28;20028;-64
2021/12/30 01:39:59;;;;;;;23.47;5.87;;;;;;;11.06;100.00;100943.88;2099501;28;20143;-64
2021/12/30 01:41:01;;;;;;;31.43;6.30;;;;;;;11.07;100.00;100937.78;2099444;28;20024;-64
2021/12/30 01:42:02;;;;;;;28.33;7.13;;;;;;;11.08;100.00;100936.84;2099357;28;20031;-65
2021/12/30 01:43:02;;;;;;;35.90;8.13;;;;;;;11.11;100.00;100946.31;2099512;28;20537;-64
2021/12/30 01:44:03;;;;;;;31.53;7.27;;;;;;;11.12;100.00;100947.16;2099441;28;20078;-64
2021/12/30 01:45:06;;;;;;;31.33;7.03;;;;;;;11.13;100.00;100941.03;2099378;28;20335;-64
2021/12/30 01:46:08;;;;;;;34.83;7.68;;;;;;;11.15;100.00;100934.00;2099477;28;20032;-64
2021/12/30 01:47:08;;;;;;;26.85;6.75;;;;;;;11.15;100.00;100934.00;2099352;28;20074;-64
2021/12/30 01:48:09;;;;;;;32.50;6.67;;;;;;;11.16;100.00;100933.91;2099494;28;20452;-64
2021/12/30 01:49:13;;;;;;;30.70;6.72;;;;;;;11.16;100.00;100933.06;2090583;28;20466;-64
2021/12/30 01:50:14;;;;;;;36.10;7.43;;;;;;;11.14;100.00;100932.28;2090914;28;20017;-63
2021/12/30 01:51:14;;;;;;;31.13;6.65;;;;;;;11.15;100.00;100926.16;2099275;28;20071;-63
2021/12/30 01:52:14;;;;;;;33.83;7.50;;;;;;;11.16;100.00;100927.84;2099408;28;20028;-64
2021/12/30 01:53:15;;;;;;;32.50;7.57;;;;;;;11.18;100.00;100931.22;2099347;28;20063;-65
2021/12/30 01:54:15;;;;;;;25.20;6.57;;;;;;;11.21;100.00;100941.53;2090555;28;20084;-65
2021/12/30 01:55:18;;;;;;;28.95;6.75;;;;;;;11.23;100.00;100938.88;2090450;28;20116;-65
2021/12/30 01:56:18;;;;;;;22.30;7.30;;;;;;;11.22;100.00;100943.22;2090330;28;20063;-65
2021/12/30 01:57:19;;;;;;;31.10;7.50;;;;;;;11.22;100.00;100942.41;2090547;28;20501;-63
2021/12/30 01:58:20;;;;;;;38.58;8.18;;;;;;;11.21;100.00;100941.53;2099314;28;20024;-64
2021/12/30 01:59:23;;;;;;;27.70;7.32;;;;;;;11.22;100.00;100938.00;2099318;28;20109;-65
2021/12/30 02:00:25;;;;;;;29.63;6.22;;;;;;;11.24;100.00;100936.19;2099172;28;20029;-63
2021/12/30 02:01:26;;;;;;;31.00;8.27;;;;;;;11.25;100.00;100937.88;2090389;28;20421;-63
2021/12/30 02:02:26;;;;;;;31.00;7.40;;;;;;;11.25;100.00;100937.03;2090239;28;20033;-63
2021/12/30 02:03:27;;;;;;;32.13;7.80;;;;;;;11.24;100.00;100930.97;2098770;28;20052;-64
2021/12/30 02:04:27;;;;;;;;;;;;;;;11.24;100.00;100930.09;2099627;28;20107;-64
2021/12/30 02:05:29;;;;;;;43.47;9.02;;;;;;;11.22;100.00;100929.34;2090324;28;19999;-64
2021/12/30 02:06:29;;;;;;;25.38;6.45;;;;;;;11.22;100.00;100929.34;2090400;28;20474;-64
2021/12/30 02:07:29;;;;;;;35.28;6.75;;;;;;;11.22;100.00;100931.94;2099290;28;20035;-64
2021/12/30 02:08:30;;;;;;;33.53;7.43;;;;;;;11.21;100.00;100925.88;2098654;28;20023;-64
2021/12/30 02:09:31;;;;;;;28.17;6.97;;;;;;;11.22;100.00;100924.94;2098381;28;20021;-65
2021/12/30 02:10:31;;;;;;;31.85;6.30;;;;;;;11.23;100.00;100926.66;2098677;28;20029;-64
2021/12/30 02:11:32;;;;;;;25.23;7.38;;;;;;;11.23;100.00;100929.28;2099262;28;20043;-65
2021/12/30 02:12:35;;;;;;;24.13;6.97;;;;;;;11.22;100.00;100927.56;2099242;28;20017;-65
2021/12/30 02:13:35;;;;;;;28.90;6.55;;;;;;;11.22;100.00;100922.34;2098961;28;20029;-65
2021/12/30 02:14:36;;;;;;;31.60;7.77;;;;;;;11.21;100.00;100925.88;2099134;28;20576;-64
2021/12/30 02:15:36;;;;;;;24.50;6.75;;;;;;;11.22;100.00;100921.50;2090255;28;20090;-65
2021/12/30 02:16:37;;;;;;;27.83;7.37;;;;;;;11.24;100.00;100927.50;2090300;28;20094;-64
2021/12/30 02:17:38;;;;;;;25.23;6.55;;;;;;;11.25;100.00;100932.66;2099094;28;20271;-64
2021/12/30 02:18:38;;;;;;;;;;;;;;;11.26;100.00;100933.50;2090658;28;20044;-65
2021/12/30 02:19:39;;;;;;;19.17;4.87;;;;;;;11.25;100.00;100932.66;2081939;28;19909;-64
2021/12/30 02:20:47;;;;;;;30.35;6.93;;;;;;;11.25;100.00;100932.66;2090342;28;20830;-64
2021/12/30 02:21:47;;;;;;;27.63;7.25;;;;;;;11.25;100.00;100932.66;2099144;28;20027;-65
2021/12/30 02:22:47;;;;;;;23.23;5.70;;;;;;;11.28;100.00;100931.66;2099113;28;20021;-65
2021/12/30 02:23:48;;;;;;;28.33;6.73;;;;;;;11.27;100.00;100929.97;2090188;28;20360;-65
2021/12/30 02:24:51;;;;;;;25.73;7.17;;;;;;;11.26;100.00;100934.34;2090352;28;20391;-65
2021/12/30 02:25:56;;;;;;;29.70;7.53;;;;;;;11.26;100.00;100939.56;2099085;28;20423;-66
2021/12/30 02:26:56;;;;;;;25.98;7.43;;;;;;;11.26;100.00;100930.91;2098991;28;20064;-64
2021/12/30 02:27:57;;;;;;;23.58;6.25;;;;;;;11.27;100.00;100935.19;2098915;28;20147;-65
2021/12/30 02:28:57;;;;;;;27.10;6.33;;;;;;;11.28;100.00;100932.53;2099078;28;20390;-65
2021/12/30 02:29:58;;;;;;;27.97;6.17;;;;;;;11.27;100.00;100941.28;2098913;28;20032;-65
2021/12/30 02:31:00;;;;;;;33.53;7.78;;;;;;;11.28;100.00;100940.34;2090129;28;20119;-65
2021/12/30 02:32:00;;;;;;;29.40;7.15;;;;;;;11.28;100.00;100935.13;2081986;28;20134;-65
2021/12/30 02:33:01;;;;;;;30.80;7.30;;;;;;;11.29;100.00;100939.44;2090188;28;20326;-65
2021/12/30 02:34:02;;;;;;;23.67;7.18;;;;;;;11.30;100.00;100941.13;2090113;28;20060;-64
2021/12/30 02:35:02;;;;;;;27.80;7.82;;;;;;;11.28;100.00;100934.28;2090189;28;20033;-65
2021/12/30 02:36:03;;;;;;;28.70;6.75;;;;;;;11.27;100.00;100936.06;2098927;28;20039;-64
2021/12/30 02:37:05;;;;;;;29.23;8.00;;;;;;;11.28;100.00;100942.13;2098990;28;20021;-64
2021/12/30 02:38:07;;;;;;;22.77;6.90;;;;;;;11.30;100.00;100940.28;2098977;28;20021;-64
2021/12/30 02:39:10;;;;;;;29.48;7.28;;;;;;;11.32;100.00;100943.66;2099008;28;20055;-65
2021/12/30 02:40:10;;;;;;;30.85;7.68;;;;;;;11.33;100.00;100941.00;2098899;28;20306;-65
2021/12/30 02:41:16;;;;;;;25.00;6.38;;;;;;;11.33;100.00;100941.00;2089932;28;20075;-65
2021/12/30 02:42:20;;;;;;;25.02;7.53;;;;;;;11.33;100.00;100930.53;2090726;28;20028;-65
2021/12/30 02:43:24;;;;;;;27.00;6.72;;;;;;;11.32;100.00;100944.53;2098952;28;20103;-65
2021/12/30 02:44:25;;;;;;;31.08;7.18;;;;;;;11.33;100.00;100938.38;2098080;28;20055;-64
2021/12/30 02:45:25;;;;;;;21.85;7.15;;;;;;;11.36;100.00;100939.19;2089817;28;20111;-64
2021/12/30 02:46:29;;;;;;;25.75;8.15;;;;;;;11.38;100.00;100938.19;2090046;28;20033;-65
2021/12/30 02:47:33;;;;;;;30.48;7.38;;;;;;;11.39;100.00;100936.44;2089946;28;20025;-65
2021/12/30 02:48:36;;;;;;;22.70;6.97;;;;;;;11.39;100.00;100939.06;2082091;28;20029;-65
2021/12/30 02:49:40;;;;;;;23.98;7.00;;;;;;;11.39;100.00;100931.22;2098180;28;20040;-65
2021/12/30 02:50:41;;;;;;;27.17;7.38;;;;;;;11.39;100.00;100942.50;2098898;28;20052;-65
2021/12/30 02:51:41;;;;;;;;;;;;;;;11.42;100.00;100938.88;2099288;28;20031;-64
2021/12/30 02:52:42;;;;;;;19.75;6.22;;;;;;;11.41;100.00;100938.06;2090030;28;19967;-65
2021/12/30 02:53:42;;;;;;;26.23;7.80;;;;;;;11.41;100.00;100937.19;2089898;28;20516;-66
2021/12/30 02:54:43;;;;;;;19.80;6.33;;;;;;;11.41;100.00;100937.19;2098788;28;20031;-64
2021/12/30 02:55:44;;;;;;;22.60;6.85;;;;;;;11.40;100.00;100930.28;2089897;28;20115;-64
2021/12/30 02:56:47;;;;;;;25.90;7.47;;;;;;;11.39;100.00;100933.81;2089926;28;20040;-64
2021/12/30 02:57:48;;;;;;;22.23;6.90;;;;;;;11.40;100.00;100940.75;2089860;28;20454;-65
2021/12/30 02:58:48;;;;;;;27.55;6.72;;;;;;;11.40;100.00;100940.75;2089890;28;20032;-64
2021/12/30 02:59:48;;;;;;;16.60;6.72;;;;;;;11.42;100.00;100949.34;2098856;28;20119;-64
2021/12/30 03:00:55;;;;;;;18.10;7.10;;;;;;;11.41;100.00;100943.28;2098150;28;20025;-63
2021/12/30 03:01:55;;;;;;;21.63;7.13;;;;;;;11.42;100.00;100946.72;2098025;28;20073;-64
2021/12/30 03:02:56;;;;;;;23.77;7.17;;;;;;;11.39;100.00;100942.50;2098812;28;20082;-64
2021/12/30 03:03:59;;;;;;;23.55;6.50;;;;;;;11.38;100.00;100948.63;2098786;28;20481;-64
2021/12/30 03:04:59;;;;;;;21.23;6.95;;;;;;;11.38;100.00;100943.41;2089927;28;20041;-63
2021/12/30 03:06:02;;;;;;;20.00;6.97;;;;;;;11.37;100.00;100948.69;2089869;28;20531;-64
2021/12/30 03:07:02;;;;;;;17.55;7.13;;;;;;;11.36;100.00;100944.41;2098873;28;20029;-64
2021/12/30 03:08:02;;;;;;;16.20;6.43;;;;;;;11.36;100.00;100944.41;2098601;28;20035;-63
2021/12/30 03:09:04;;;;;;;21.57;6.90;;;;;;;11.35;100.00;100955.78;2098836;28;20377;-63
2021/12/30 03:10:05;;;;;;;16.73;6.47;;;;;;;11.36;100.00;100947.00;2098027;28;20342;-62
2021/12/30 03:11:06;;;;;;;13.07;6.40;;;;;;;11.35;100.00;100953.16;2098152;28;20052;-62
2021/12/30 03:12:07;;;;;;;15.88;6.35;;;;;;;11.35;100.00;100951.38;2098133;28;20444;-63
2021/12/30 03:13:09;;;;;;;24.53;6.63;;;;;;;11.35;100.00;100953.16;2098675;28;20052;-63
2021/12/30 03:14:10;;;;;;;18.05;6.55;;;;;;;11.35;100.00;100950.56;2098806;28;20032;-63
2021/12/30 03:15:12;;;;;;;17.30;6.10;;;;;;;11.34;100.00;100957.53;2098656;28;20469;-63
2021/12/30 03:16:20;;;;;;;18.08;5.95;;;;;;;11.33;100.00;100948.84;2098686;28;20060;-62
2021/12/30 03:17:20;;;;;;;15.18;5.38;;;;;;;11.35;100.00;100951.38;2098755;28;20048;-62
2021/12/30 03:18:20;;;;;;;15.43;5.57;;;;;;;11.35;100.00;100958.41;2089638;28;20362;-62
2021/12/30 03:19:21;;;;;;;13.73;5.50;;;;;;;11.35;100.00;100955.78;2089768;28;20050;-62
2021/12/30 03:20:21;;;;;;;12.70;5.70;;;;;;;11.36;100.00;100955.69;2089092;28;20021;-62
2021/12/30 03:21:22;;;;;;;18.17;6.00;;;;;;;11.38;100.00;100958.22;2098411;28;20285;-63
2021/12/30 03:22:24;;;;;;;15.10;5.55;;;;;;;11.37;100.00;100957.41;2098511;28;20477;-62
2021/12/30 03:23:24;;;;;;;;;;;;;;;11.39;100.00;100957.34;2089973;28;20025;-62
2021/12/30 03:24:24;;;;;;;18.38;6.38;;;;;;;11.38;100.00;100955.63;2089740;28;20419;-62
2021/12/30 03:25:24;;;;;;;10.67;5.37;;;;;;;11.37;100.00;100952.19;2098505;28;20035;-62
2021/12/30 03:26:25;;;;;;;9.20;5.47;;;;;;;11.39;100.00;100946.88;2098608;28;20083;-62
2021/12/30 03:27:25;;;;;;;14.25;6.07;;;;;;;11.39;100.00;100952.13;2098331;28;20036;-62
2021/12/30 03:28:26;;;;;;;15.20;5.53;;;;;;;11.39;100.00;100952.94;2098603;28;20020;-62
2021/12/30 03:29:26;;;;;;;10.88;5.30;;;;;;;11.40;100.00;100959.03;2098485;28;20033;-61
2021/12/30 03:30:27;;;;;;;14.57;5.13;;;;;;;11.39;100.00;100955.56;2098526;28;20487;-61
2021/12/30 03:31:27;;;;;;;9.73;4.85;;;;;;;11.41;100.00;100958.09;2098562;28;20028;-62
2021/12/30 03:32:28;;;;;;;15.30;6.43;;;;;;;11.42;100.00;100965.03;2098601;28;20099;-63
2021/12/30 03:33:30;;;;;;;10.73;5.90;;;;;;;11.42;100.00;100954.56;2098583;28;20063;-60
2021/12/30 03:34:30;;;;;;;10.57;5.40;;;;;;;11.41;100.00;100948.50;2098534;28;20028;-61
2021/12/30 03:35:31;;;;;;;14.30;6.23;;;;;;;11.40;100.00;100959.03;2098544;28;20032;-62
2021/12/30 03:36:33;;;;;;;9.17;5.80;;;;;;;11.40;100.00;100952.03;2098462;28;20028;-62
2021/12/30 03:37:33;;;;;;;12.38;5.72;;;;;;;11.42;100.00;100955.44;2098449;28;20420;-60
2021/12/30 03:38:40;;;;;;;15.27;5.25;;;;;;;11.44;100.00;100950.13;2098470;28;20470;-61
2021/12/30 03:39:41;;;;;;;13.05;5.88;;;;;;;11.44;100.00;100952.75;2098345;28;20103;-61
2021/12/30 03:40:41;;;;;;;9.67;5.17;;;;;;;11.43;100.00;100951.06;2098484;28;20047;-62
2021/12/30 03:41:41;;;;;;;9.33;5.57;;;;;;;11.44;100.00;100957.97;2098507;28;20111;-62
2021/12/30 03:42:42;;;;;;;12.63;6.47;;;;;;;11.44;100.00;100950.13;2098308;28;20043;-61
2021/12/30 03:43:43;;;;;;;13.95;5.18;;;;;;;11.44;100.00;100951.00;2097718;28;20032;-61
2021/12/30 03:44:46;;;;;;;10.85;5.07;;;;;;;11.44;100.00;100947.53;2097827;28;20095;-61
2021/12/30 03:45:46;;;;;;;10.77;4.97;;;;;;;11.45;100.00;100959.66;2098403;28;20029;-61
2021/12/30 03:46:46;;;;;;;11.00;5.10;;;;;;;11.47;100.00;100952.63;2098354;28;20032;-61
2021/12/30 03:47:49;;;;;;;8.00;4.20;;;;;;;11.48;100.00;100949.06;2089487;28;20044;-60
2021/12/30 03:48:49;;;;;;;11.02;4.40;;;;;;;11.52;100.00;100953.25;2089837;28;20063;-61
2021/12/30 03:49:50;;;;;;;7.85;4.28;;;;;;;11.53;100.00;100956.72;2098392;28;20069;-61
2021/12/30 03:50:52;;;;;;;7.50;4.53;;;;;;;11.54;100.00;100959.28;2098391;28;20074;-61
2021/12/30 03:51:53;;;;;;;8.05;4.90;;;;;;;11.51;100.00;100959.41;2089406;28;20021;-61
2021/12/30 03:52:57;;;;;;;8.25;4.47;;;;;;;11.53;100.00;100952.31;2081274;28;20025;-62
2021/12/30 03:53:57;;;;;;;7.00;3.78;;;;;;;11.54;100.00;100959.28;2089820;28;20047;-61
2021/12/30 03:54:58;;;;;;;8.20;3.43;;;;;;;11.55;100.00;100955.72;2098341;28;20462;-62
2021/12/30 03:55:58;;;;;;;6.20;3.83;;;;;;;11.56;100.00;100957.41;2098363;28;20028;-61
2021/12/30 03:56:58;;;;;;;6.50;4.27;;;;;;;11.58;100.00;100960.84;2098285;28;20021;-62
2021/12/30 03:57:59;;;;;;;7.37;3.63;;;;;;;11.59;100.00;100952.06;2098403;28;20028;-61
2021/12/30 03:58:59;;;;;;;7.45;4.25;;;;;;;11.59;100.00;100957.28;2098434;28;20062;-62
2021/12/30 03:59:59;;;;;;;8.20;3.63;;;;;;;11.63;100.00;100959.78;2098336;28;20032;-62
2021/12/30 04:01:00;;;;;;;8.03;4.10;;;;;;;11.62;100.00;100956.31;2089448;28;20028;-62
2021/12/30 04:02:00;;;;;;;7.65;3.85;;;;;;;11.63;100.00;100959.78;2089424;28;20025;-61
2021/12/30 04:03:00;;;;;;;7.23;3.57;;;;;;;11.66;100.00;100957.00;2098408;28;20103;-61
2021/12/30 04:04:01;;;;;;;5.80;3.80;;;;;;;11.69;100.00;100959.47;2098395;28;20024;-63
2021/12/30 04:05:02;;;;;;;7.38;4.35;;;;;;;11.69;100.00;100954.25;2097678;28;20024;-61
2021/12/30 04:06:03;;;;;;;7.03;3.58;;;;;;;11.69;100.00;100957.72;2097789;28;20071;-61
2021/12/30 04:07:03;;;;;;;7.95;3.25;;;;;;;11.70;100.00;100958.56;2098160;28;20027;-61
2021/12/30 04:08:07;;;;;;;5.17;3.43;;;;;;;11.70;100.00;100958.56;2098300;28;20029;-61
2021/12/30 04:09:07;;;;;;;8.05;3.30;;;;;;;11.71;100.00;100965.50;2098363;28;20763;-60
2021/12/30 04:10:09;;;;;;;5.70;3.03;;;;;;;11.73;100.00;100966.25;2098261;28;20020;-61
2021/12/30 04:11:10;;;;;;;7.20;3.30;;;;;;;11.73;100.00;100961.03;2098312;28;20429;-62
2021/12/30 04:12:10;;;;;;;6.07;3.13;;;;;;;11.73;100.00;100963.66;2098374;28;20020;-63
2021/12/30 04:13:10;;;;;;;6.53;3.33;;;;;;;11.75;100.00;100956.59;2098279;28;20343;-62
2021/12/30 04:14:11;;;;;;;8.77;4.00;;;;;;;11.78;100.00;100956.47;2098191;28;20112;-62
2021/12/30 04:15:11;;;;;;;9.43;4.75;;;;;;;11.80;100.00;100949.38;2098231;28;20135;-62
2021/12/30 04:16:12;;;;;;;7.53;3.70;;;;;;;11.82;100.00;100958.03;2089372;28;20198;-61
2021/12/30 04:17:13;;;;;;;6.63;3.70;;;;;;;11.82;100.00;100958.03;2089354;28;20021;-62
2021/12/30 04:18:13;;;;;;;6.03;4.03;;;;;;;11.84;100.00;100961.41;2098112;28;20043;-62
2021/12/30 04:19:14;;;;;;;9.03;4.23;;;;;;;11.84;100.00;100969.25;2098166;28;20020;-62
2021/12/30 04:20:15;;;;;;;7.83;4.70;;;;;;;11.84;100.00;100960.56;2089293;28;20033;-62
2021/12/30 04:21:20;;;;;;;6.25;3.45;;;;;;;11.83;100.00;100967.56;2089396;28;20044;-62
2021/12/30 04:22:20;;;;;;;10.98;4.53;;;;;;;11.83;100.00;100975.41;2089177;28;20044;-62
2021/12/30 04:23:20;;;;;;;8.23;4.67;;;;;;;11.85;100.00;100976.16;2089410;28;20457;-62
2021/12/30 04:24:21;;;;;;;9.67;4.90;;;;;;;11.88;100.00;100975.19;2098181;28;20056;-61
2021/12/30 04:25:21;;;;;;;11.80;5.17;;;;;;;11.91;100.00;100974.19;2098149;28;20043;-63
2021/12/30 04:26:22;;;;;;;9.73;5.40;;;;;;;11.90;100.00;100972.50;2098283;28;20028;-61
2021/12/30 04:27:22;;;;;;;7.38;4.43;;;;;;;11.93;100.00;100977.56;2098043;28;20103;-62
2021/12/30 04:28:23;;;;;;;9.77;5.13;;;;;;;11.93;100.00;100975.81;2098254;28;20024;-62
2021/12/30 04:29:23;;;;;;;9.18;5.38;;;;;;;11.93;100.00;100972.34;2089290;28;20087;-62
2021/12/30 04:30:23;;;;;;;9.87;5.53;;;;;;;11.93;100.00;100972.34;2089362;28;20040;-63
2021/12/30 04:31:24;;;;;;;11.73;6.50;;;;;;;11.95;100.00;100975.75;2098009;28;20305;-61
2021/12/30 04:32:24;;;;;;;11.82;5.95;;;;;;;11.98;100.00;100978.22;2098013;28;20389;-61
2021/12/30 04:33:25;;;;;;;8.73;5.00;;;;;;;11.98;100.00;100975.63;2098165;28;20492;-62
2021/12/30 04:34:25;;;;;;;12.10;6.57;;;;;;;12.02;100.00;100982.41;2089281;28;20029;-61
2021/12/30 04:35:25;;;;;;;13.97;7.77;;;;;;;12.03;100.00;100986.72;2089445;28;20021;-60
2021/12/30 04:36:25;;;;;;;12.43;7.03;;;;;;;12.06;100.00;100981.38;2098185;28;20017;-62
2021/12/30 04:37:26;;;;;;;16.13;7.93;;;;;;;12.05;100.00;100990.09;2098252;28;20481;-61
2021/12/30 04:38:29;;;;;;;13.77;8.43;;;;;;;12.07;100.00;100976.97;2097587;28;20054;-61
2021/12/30 04:39:31;;;;;;;13.30;8.32;;;;;;;12.10;100.00;100980.31;2097471;28;20508;-62